Time,TemperatureF,DewpointF,PressureIn,WindDirection,WindDirectionDegrees,WindSpeedMPH,WindSpeedGustMPH,Humidity,HourlyPrecipIn,Conditions,Clouds,dailyrainin,SolarRadiationWatts/m^2,SoftwareType,DateUTC
2013-05-12 00:01:00,66.0,43.0,-100.00,SE,124,3.0,6.0,43,0.00,,,0.00,1.000000,,2013-05-12 07:01:00,
2013-05-12 00:32:00,64.0,43.0,-100.00,East,91,3.0,6.0,46,0.00,,,0.00,1.000000,,2013-05-12 07:32:00,
2013-05-12 00:42:00,64.0,43.0,-100.00,East,91,3.0,6.0,46,0.00,,,0.00,1.000000,,2013-05-12 07:42:00,
2013-05-12 00:52:00,64.0,43.0,-100.00,East,91,3.0,6.0,46,0.00,,,0.00,1.000000,,2013-05-12 07:52:00,
2013-05-12 01:02:00,64.0,43.0,-100.00,East,91,3.0,6.0,46,0.00,,,0.00,1.000000,,2013-05-12 08:02:00,
2013-05-12 01:32:00,62.0,42.0,-100.00,ESE,107,2.0,5.0,47,0.00,,,0.00,1.000000,,2013-05-12 08:32:00,
2013-05-12 01:42:00,62.0,42.0,-100.00,ESE,107,2.0,5.0,47,0.00,,,0.00,1.000000,,2013-05-12 08:42:00,
2013-05-12 01:53:00,62.0,42.0,-100.00,ESE,107,2.0,5.0,47,0.00,,,0.00,1.000000,,2013-05-12 08:53:00,
2013-05-12 02:01:00,62.0,42.0,-100.00,ESE,107,2.0,5.0,47,0.00,,,0.00,1.000000,,2013-05-12 09:01:00,
2013-05-12 02:33:00,63.0,44.0,-100.00,ESE,104,1.0,4.0,49,0.00,,,0.00,1.000000,,2013-05-12 09:33:00,
2013-05-12 02:43:00,63.0,44.0,-100.00,ESE,104,1.0,4.0,49,0.00,,,0.00,1.000000,,2013-05-12 09:43:00,
2013-05-12 02:53:00,63.0,44.0,-100.00,ESE,104,1.0,4.0,49,0.00,,,0.00,1.000000,,2013-05-12 09:53:00,
2013-05-12 03:03:00,63.0,44.0,-100.00,ESE,104,1.0,4.0,49,0.00,,,0.00,1.000000,,2013-05-12 10:03:00,
2013-05-12 03:33:00,61.0,44.0,-100.00,SE,134,3.0,7.0,53,0.00,,,0.00,1.000000,,2013-05-12 10:33:00,
2013-05-12 03:42:00,61.0,44.0,-100.00,SE,134,3.0,7.0,53,0.00,,,0.00,1.000000,,2013-05-12 10:42:00,
2013-05-12 03:52:00,61.0,44.0,-100.00,SE,134,3.0,7.0,53,0.00,,,0.00,1.000000,,2013-05-12 10:52:00,
2013-05-12 04:02:00,61.0,44.0,-100.00,SE,134,3.0,7.0,53,0.00,,,0.00,1.000000,,2013-05-12 11:02:00,
2013-05-12 04:32:00,56.0,41.0,-100.00,East,101,3.0,6.0,57,0.00,,,0.00,1.000000,,2013-05-12 11:32:00,
2013-05-12 04:42:00,56.0,41.0,-100.00,East,101,3.0,6.0,57,0.00,,,0.00,1.000000,,2013-05-12 11:42:00,
2013-05-12 04:52:00,56.0,41.0,-100.00,East,101,3.0,6.0,57,0.00,,,0.00,1.000000,,2013-05-12 11:52:00,
2013-05-12 05:01:00,56.0,41.0,-100.00,East,101,3.0,6.0,57,0.00,,,0.00,1.000000,,2013-05-12 12:01:00,
2013-05-12 06:32:00,57.0,45.0,-100.00,ENE,76,2.0,6.0,64,-99.99,,,0.00,6.000000,,2013-05-12 13:32:00,
2013-05-12 06:42:00,57.0,45.0,-100.00,ENE,76,2.0,6.0,64,-99.99,,,0.00,6.000000,,2013-05-12 13:42:00,
2013-05-12 06:52:00,57.0,45.0,-100.00,ENE,76,2.0,6.0,64,-99.99,,,0.00,6.000000,,2013-05-12 13:52:00,
2013-05-12 07:01:00,57.0,45.0,-100.00,ENE,76,2.0,6.0,64,-99.99,,,0.00,6.000000,,2013-05-12 14:01:00,
2013-05-12 07:32:00,59.0,48.0,-100.00,SSE,148,4.0,5.0,67,0.00,,,0.00,47.000000,,2013-05-12 14:32:00,
2013-05-12 07:42:00,59.0,48.0,-100.00,SSE,148,4.0,5.0,67,0.00,,,0.00,47.000000,,2013-05-12 14:42:00,
2013-05-12 07:52:00,59.0,48.0,-100.00,SSE,148,4.0,5.0,67,0.00,,,0.00,47.000000,,2013-05-12 14:52:00,
2013-05-12 08:01:00,59.0,48.0,-100.00,SSE,148,4.0,5.0,67,0.00,,,0.00,47.000000,,2013-05-12 15:01:00,
2013-05-12 08:34:00,65.0,49.0,-100.00,SW,229,3.0,6.0,56,0.00,,,-99.99,102.000000,,2013-05-12 15:34:00,
2013-05-12 08:42:00,65.0,49.0,-100.00,SW,229,3.0,6.0,56,0.00,,,-99.99,102.000000,,2013-05-12 15:42:00,
2013-05-12 08:53:00,65.0,49.0,-100.00,SW,229,3.0,6.0,56,0.00,,,-99.99,102.000000,,2013-05-12 15:53:00,
2013-05-12 09:02:00,65.0,49.0,-100.00,SW,229,3.0,6.0,56,0.00,,,-99.99,102.000000,,2013-05-12 16:02:00,
2013-05-12 09:33:00,68.0,48.0,-100.00,NNW,337,4.0,6.0,48,0.00,,,0.00,161.000000,,2013-05-12 16:33:00,
2013-05-12 09:42:00,68.0,48.0,-100.00,NNW,337,4.0,6.0,48,0.00,,,0.00,161.000000,,2013-05-12 16:42:00,
2013-05-12 09:52:00,68.0,48.0,-100.00,NNW,337,4.0,6.0,48,0.00,,,0.00,161.000000,,2013-05-12 16:52:00,
2013-05-12 10:01:00,68.0,48.0,-100.00,NNW,337,4.0,6.0,48,0.00,,,0.00,161.000000,,2013-05-12 17:01:00,
2013-05-12 10:32:00,71.0,50.0,-100.00,West,263,10.0,14.0,47,0.00,,,-99.99,301.000000,,2013-05-12 17:32:00,
2013-05-12 10:42:00,71.0,50.0,-100.00,West,263,10.0,14.0,47,0.00,,,-99.99,301.000000,,2013-05-12 17:42:00,
2013-05-12 10:52:00,71.0,50.0,-100.00,West,263,10.0,14.0,47,0.00,,,-99.99,301.000000,,2013-05-12 17:52:00,
2013-05-12 11:01:00,71.0,50.0,-100.00,West,263,10.0,14.0,47,0.00,,,-99.99,301.000000,,2013-05-12 18:01:00,
2013-05-12 11:32:00,72.0,50.0,-100.00,West,274,10.0,15.0,46,0.00,,,0.00,367.000000,,2013-05-12 18:32:00,
2013-05-12 11:42:00,72.0,50.0,-100.00,West,274,10.0,15.0,46,0.00,,,0.00,367.000000,,2013-05-12 18:42:00,
2013-05-12 11:52:00,72.0,50.0,-100.00,West,274,10.0,15.0,46,0.00,,,0.00,367.000000,,2013-05-12 18:52:00,
2013-05-12 12:01:00,72.0,50.0,-100.00,West,274,10.0,15.0,46,0.00,,,0.00,367.000000,,2013-05-12 19:01:00,
2013-05-12 12:32:00,74.0,51.0,-100.00,West,269,7.0,14.0,44,0.00,,,0.00,523.000000,,2013-05-12 19:32:00,
2013-05-12 12:42:00,74.0,51.0,-100.00,West,269,7.0,14.0,44,0.00,,,0.00,523.000000,,2013-05-12 19:42:00,
2013-05-12 12:52:00,74.0,51.0,-100.00,West,269,7.0,14.0,44,0.00,,,0.00,523.000000,,2013-05-12 19:52:00,
2013-05-12 13:02:00,74.0,51.0,-100.00,West,269,7.0,14.0,44,0.00,,,0.00,523.000000,,2013-05-12 20:02:00,
2013-05-12 13:32:00,76.0,51.0,-100.00,West,276,6.0,12.0,42,0.00,,,0.00,562.000000,,2013-05-12 20:32:00,
2013-05-12 13:42:00,76.0,51.0,-100.00,West,276,6.0,12.0,42,0.00,,,0.00,562.000000,,2013-05-12 20:42:00,
2013-05-12 13:52:00,76.0,51.0,-100.00,West,276,6.0,12.0,42,0.00,,,0.00,562.000000,,2013-05-12 20:52:00,
2013-05-12 14:01:00,76.0,51.0,-100.00,West,276,6.0,12.0,42,0.00,,,0.00,562.000000,,2013-05-12 21:01:00,
2013-05-12 14:33:00,73.0,51.0,-100.00,NW,307,8.0,13.0,46,0.00,,,0.00,322.000000,,2013-05-12 21:33:00,
2013-05-12 14:42:00,73.0,51.0,-100.00,NW,307,8.0,13.0,46,0.00,,,0.00,322.000000,,2013-05-12 21:42:00,
2013-05-12 14:53:00,73.0,51.0,-100.00,NW,307,8.0,13.0,46,0.00,,,0.00,322.000000,,2013-05-12 21:53:00,
2013-05-12 15:02:00,73.0,51.0,-100.00,NW,307,8.0,13.0,46,0.00,,,0.00,322.000000,,2013-05-12 22:02:00,
2013-05-12 15:33:00,73.0,51.0,-100.00,NNW,343,7.0,16.0,46,0.00,,,0.00,199.000000,,2013-05-12 22:33:00,
2013-05-12 15:42:00,73.0,51.0,-100.00,NNW,343,7.0,16.0,46,0.00,,,0.00,199.000000,,2013-05-12 22:42:00,
2013-05-12 15:52:00,73.0,51.0,-100.00,NNW,343,7.0,16.0,46,0.00,,,0.00,199.000000,,2013-05-12 22:52:00,
2013-05-12 16:02:00,73.0,51.0,-100.00,NNW,343,7.0,16.0,46,0.00,,,0.00,199.000000,,2013-05-12 23:02:00,
2013-05-12 16:32:00,73.0,49.0,-100.00,NW,323,3.0,13.0,43,0.00,,,0.00,265.000000,,2013-05-12 23:32:00,
2013-05-12 16:42:00,73.0,49.0,-100.00,NW,323,3.0,13.0,43,0.00,,,0.00,265.000000,,2013-05-12 23:42:00,
2013-05-12 16:52:00,73.0,49.0,-100.00,NW,323,3.0,13.0,43,0.00,,,0.00,265.000000,,2013-05-12 23:52:00,
2013-05-12 17:01:00,73.0,49.0,-100.00,NW,323,3.0,13.0,43,0.00,,,0.00,265.000000,,2013-05-13 00:01:00,
2013-05-12 17:32:00,73.0,49.0,-100.00,NW,314,5.0,11.0,42,0.00,,,0.00,278.000000,,2013-05-13 00:32:00,
2013-05-12 17:42:00,73.0,49.0,-100.00,NW,314,5.0,11.0,42,0.00,,,0.00,278.000000,,2013-05-13 00:42:00,
2013-05-12 17:52:00,73.0,49.0,-100.00,NW,314,5.0,11.0,42,0.00,,,0.00,278.000000,,2013-05-13 00:52:00,
2013-05-12 18:01:00,73.0,49.0,-100.00,NW,314,5.0,11.0,42,0.00,,,0.00,278.000000,,2013-05-13 01:01:00,
2013-05-12 18:32:00,72.0,46.0,-100.00,West,260,9.0,19.0,39,0.00,,,0.00,162.000000,,2013-05-13 01:32:00,
2013-05-12 18:42:00,72.0,46.0,-100.00,West,260,9.0,19.0,39,0.00,,,0.00,162.000000,,2013-05-13 01:42:00,
2013-05-12 18:52:00,72.0,46.0,-100.00,West,260,9.0,19.0,39,0.00,,,0.00,162.000000,,2013-05-13 01:52:00,
2013-05-12 19:01:00,72.0,46.0,-100.00,West,260,9.0,19.0,39,0.00,,,0.00,162.000000,,2013-05-13 02:01:00,
2013-05-12 19:32:00,69.0,46.0,-100.00,WSW,256,12.0,18.0,44,0.00,,,0.00,76.000000,,2013-05-13 02:32:00,
2013-05-12 19:42:00,69.0,46.0,-100.00,WSW,256,12.0,18.0,44,0.00,,,0.00,76.000000,,2013-05-13 02:42:00,
2013-05-12 19:52:00,69.0,46.0,-100.00,WSW,256,12.0,18.0,44,0.00,,,0.00,76.000000,,2013-05-13 02:52:00,
2013-05-12 20:01:00,69.0,46.0,-100.00,WSW,256,12.0,18.0,44,0.00,,,0.00,76.000000,,2013-05-13 03:01:00,
2013-05-12 20:33:00,67.0,43.0,-100.00,West,265,12.0,21.0,42,0.00,,,0.00,29.000000,,2013-05-13 03:33:00,
2013-05-12 20:42:00,67.0,43.0,-100.00,West,265,12.0,21.0,42,0.00,,,0.00,29.000000,,2013-05-13 03:42:00,
2013-05-12 20:53:00,67.0,43.0,-100.00,West,265,12.0,21.0,42,0.00,,,0.00,29.000000,,2013-05-13 03:53:00,
2013-05-12 21:02:00,67.0,43.0,-100.00,West,265,12.0,21.0,42,0.00,,,0.00,29.000000,,2013-05-13 04:02:00,
2013-05-12 21:33:00,65.0,41.0,-100.00,WSW,252,10.0,20.0,42,0.00,,,0.00,4.000000,,2013-05-13 04:33:00,
2013-05-12 21:42:00,65.0,41.0,-100.00,WSW,252,10.0,20.0,42,0.00,,,0.00,4.000000,,2013-05-13 04:42:00,
2013-05-12 21:52:00,65.0,41.0,-100.00,WSW,252,10.0,20.0,42,0.00,,,0.00,4.000000,,2013-05-13 04:52:00,
2013-05-12 22:02:00,65.0,41.0,-100.00,WSW,252,10.0,20.0,42,0.00,,,0.00,4.000000,,2013-05-13 05:02:00,
2013-05-12 22:32:00,62.0,40.0,-100.00,WSW,247,9.0,12.0,45,0.00,,,0.00,1.000000,,2013-05-13 05:32:00,
2013-05-12 22:42:00,62.0,40.0,-100.00,WSW,247,9.0,12.0,45,0.00,,,0.00,1.000000,,2013-05-13 05:42:00,
2013-05-12 22:52:00,62.0,40.0,-100.00,WSW,247,9.0,12.0,45,0.00,,,0.00,1.000000,,2013-05-13 05:52:00,
2013-05-12 23:01:00,62.0,40.0,-100.00,WSW,247,9.0,12.0,45,0.00,,,0.00,1.000000,,2013-05-13 06:01:00,
2013-05-12 23:32:00,62.0,40.0,-100.00,WSW,254,10.0,16.0,44,0.00,,,0.00,1.000000,,2013-05-13 06:32:00,
2013-05-12 23:42:00,62.0,40.0,-100.00,WSW,254,10.0,16.0,44,0.00,,,0.00,1.000000,,2013-05-13 06:42:00,
2013-05-12 23:52:00,62.0,40.0,-100.00,WSW,254,10.0,16.0,44,0.00,,,0.00,1.000000,,2013-05-13 06:52:00,